sensor_id;sensor_type;location;lat;lon;timestamp;temperature;humidity
79187;SHT31;68762;51.980;5.646;2024-01-11T00:01:34;-0.4;49.4
79187;SHT31;68762;51.980;5.646;2024-01-11T00:04:03;-0.4;49.8
79187;SHT31;68762;51.980;5.646;2024-01-11T00:06:33;-0.4;50.0
79187;SHT31;68762;51.980;5.646;2024-01-11T00:09:05;-0.4;49.5
79187;SHT31;68762;51.980;5.646;2024-01-11T00:11:34;-0.4;49.9
79187;SHT31;68762;51.980;5.646;2024-01-11T00:14:03;-0.4;49.9
79187;SHT31;68762;51.980;5.646;2024-01-11T00:16:32;-0.5;49.8
79187;SHT31;68762;51.980;5.646;2024-01-11T00:19:02;-0.5;49.9
79187;SHT31;68762;51.980;5.646;2024-01-11T00:21:31;-0.5;49.9
79187;SHT31;68762;51.980;5.646;2024-01-11T00:23:59;-0.5;49.5
79187;SHT31;68762;51.980;5.646;2024-01-11T00:26:28;-0.6;49.2
79187;SHT31;68762;51.980;5.646;2024-01-11T00:28:56;-0.6;49.6
79187;SHT31;68762;51.980;5.646;2024-01-11T00:31:25;-0.6;50.2
79187;SHT31;68762;51.980;5.646;2024-01-11T00:33:53;-0.6;50.0
79187;SHT31;68762;51.980;5.646;2024-01-11T00:36:22;-0.6;50.4
79187;SHT31;68762;51.980;5.646;2024-01-11T00:38:51;-0.6;50.6
79187;SHT31;68762;51.980;5.646;2024-01-11T00:41:20;-0.7;50.2
79187;SHT31;68762;51.980;5.646;2024-01-11T00:43:50;-0.7;50.5
79187;SHT31;68762;51.980;5.646;2024-01-11T00:46:20;-0.7;50.5
79187;SHT31;68762;51.980;5.646;2024-01-11T00:48:50;-0.7;50.8
79187;SHT31;68762;51.980;5.646;2024-01-11T00:51:19;-0.8;51.3
79187;SHT31;68762;51.980;5.646;2024-01-11T00:53:49;-0.8;50.7
79187;SHT31;68762;51.980;5.646;2024-01-11T00:56:18;-0.8;50.9
79187;SHT31;68762;51.980;5.646;2024-01-11T00:58:47;-0.8;50.9
79187;SHT31;68762;51.980;5.646;2024-01-11T01:01:16;-0.9;51.2
79187;SHT31;68762;51.980;5.646;2024-01-11T01:03:45;-0.9;50.9
79187;SHT31;68762;51.980;5.646;2024-01-11T01:06:13;-0.9;51.4
79187;SHT31;68762;51.980;5.646;2024-01-11T01:08:42;-0.9;51.7
79187;SHT31;68762;51.980;5.646;2024-01-11T01:11:11;-0.9;51.3
79187;SHT31;68762;51.980;5.646;2024-01-11T01:13:39;-1.0;51.7
79187;SHT31;68762;51.980;5.646;2024-01-11T01:16:10;-1.0;51.9
79187;SHT31;68762;51.980;5.646;2024-01-11T01:18:38;-1.0;52.2
79187;SHT31;68762;51.980;5.646;2024-01-11T01:21:07;-1.0;51.9
79187;SHT31;68762;51.980;5.646;2024-01-11T01:23:35;-1.0;51.8
79187;SHT31;68762;51.980;5.646;2024-01-11T01:26:04;-1.1;52.1
79187;SHT31;68762;51.980;5.646;2024-01-11T01:28:32;-1.1;51.9
79187;SHT31;68762;51.980;5.646;2024-01-11T01:31:02;-1.1;52.0
79187;SHT31;68762;51.980;5.646;2024-01-11T01:33:31;-1.1;51.8
79187;SHT31;68762;51.980;5.646;2024-01-11T01:35:59;-1.1;52.0
79187;SHT31;68762;51.980;5.646;2024-01-11T01:38:28;-1.1;52.1
79187;SHT31;68762;51.980;5.646;2024-01-11T01:40:57;-1.1;52.1
79187;SHT31;68762;51.980;5.646;2024-01-11T01:43:25;-1.2;52.3
79187;SHT31;68762;51.980;5.646;2024-01-11T01:45:54;-1.2;52.3
79187;SHT31;68762;51.980;5.646;2024-01-11T01:48:23;-1.2;52.5
79187;SHT31;68762;51.980;5.646;2024-01-11T01:50:53;-1.3;52.9
79187;SHT31;68762;51.980;5.646;2024-01-11T01:53:23;-1.3;53.2
79187;SHT31;68762;51.980;5.646;2024-01-11T01:55:54;-1.3;53.0
79187;SHT31;68762;51.980;5.646;2024-01-11T01:58:23;-1.3;53.1
79187;SHT31;68762;51.980;5.646;2024-01-11T02:00:53;-1.4;53.2
79187;SHT31;68762;51.980;5.646;2024-01-11T02:03:24;-1.4;53.6
79187;SHT31;68762;51.980;5.646;2024-01-11T02:05:55;-1.4;53.5
79187;SHT31;68762;51.980;5.646;2024-01-11T02:08:25;-1.4;53.6
79187;SHT31;68762;51.980;5.646;2024-01-11T02:10:56;-1.4;53.7
79187;SHT31;68762;51.980;5.646;2024-01-11T02:13:26;-1.4;54.1
79187;SHT31;68762;51.980;5.646;2024-01-11T02:15:55;-1.4;53.7
79187;SHT31;68762;51.980;5.646;2024-01-11T02:18:23;-1.4;54.0
79187;SHT31;68762;51.980;5.646;2024-01-11T02:20:52;-1.5;54.0
79187;SHT31;68762;51.980;5.646;2024-01-11T02:23:24;-1.5;54.0
79187;SHT31;68762;51.980;5.646;2024-01-11T02:25:54;-1.5;53.8
79187;SHT31;68762;51.980;5.646;2024-01-11T02:28:23;-1.5;54.1
79187;SHT31;68762;51.980;5.646;2024-01-11T02:30:51;-1.6;54.5
79187;SHT31;68762;51.980;5.646;2024-01-11T02:33:20;-1.6;54.6
79187;SHT31;68762;51.980;5.646;2024-01-11T02:35:49;-1.6;54.6
79187;SHT31;68762;51.980;5.646;2024-01-11T02:38:18;-1.6;54.5
79187;SHT31;68762;51.980;5.646;2024-01-11T02:40:48;-1.6;54.8
79187;SHT31;68762;51.980;5.646;2024-01-11T02:43:17;-1.7;55.0
79187;SHT31;68762;51.980;5.646;2024-01-11T02:45:46;-1.7;54.9
79187;SHT31;68762;51.980;5.646;2024-01-11T02:48:14;-1.7;55.1
79187;SHT31;68762;51.980;5.646;2024-01-11T02:50:43;-1.7;55.4
79187;SHT31;68762;51.980;5.646;2024-01-11T02:53:12;-1.8;55.4
79187;SHT31;68762;51.980;5.646;2024-01-11T02:55:40;-1.8;55.5
79187;SHT31;68762;51.980;5.646;2024-01-11T02:58:09;-1.8;55.5
79187;SHT31;68762;51.980;5.646;2024-01-11T03:00:38;-1.8;55.6
79187;SHT31;68762;51.980;5.646;2024-01-11T03:03:09;-1.8;55.9
79187;SHT31;68762;51.980;5.646;2024-01-11T03:05:38;-1.8;55.9
79187;SHT31;68762;51.980;5.646;2024-01-11T03:08:06;-1.8;55.9
79187;SHT31;68762;51.980;5.646;2024-01-11T03:10:37;-1.9;55.8
79187;SHT31;68762;51.980;5.646;2024-01-11T03:13:07;-1.9;55.8
79187;SHT31;68762;51.980;5.646;2024-01-11T03:15:36;-1.9;56.1
79187;SHT31;68762;51.980;5.646;2024-01-11T03:18:04;-1.9;56.0
79187;SHT31;68762;51.980;5.646;2024-01-11T03:20:33;-1.9;56.1
79187;SHT31;68762;51.980;5.646;2024-01-11T03:23:02;-1.9;56.2
79187;SHT31;68762;51.980;5.646;2024-01-11T03:25:31;-1.9;56.2
79187;SHT31;68762;51.980;5.646;2024-01-11T03:27:59;-1.9;56.3
79187;SHT31;68762;51.980;5.646;2024-01-11T03:30:28;-1.9;56.1
79187;SHT31;68762;51.980;5.646;2024-01-11T03:32:57;-2.0;56.5
79187;SHT31;68762;51.980;5.646;2024-01-11T03:35:26;-2.0;56.7
79187;SHT31;68762;51.980;5.646;2024-01-11T03:37:54;-2.0;56.8
79187;SHT31;68762;51.980;5.646;2024-01-11T03:40:23;-2.0;56.7
79187;SHT31;68762;51.980;5.646;2024-01-11T03:42:51;-2.0;56.8
79187;SHT31;68762;51.980;5.646;2024-01-11T03:45:22;-2.0;56.9
79187;SHT31;68762;51.980;5.646;2024-01-11T03:47:50;-2.0;57.1
79187;SHT31;68762;51.980;5.646;2024-01-11T03:50:19;-2.0;57.0
79187;SHT31;68762;51.980;5.646;2024-01-11T03:52:49;-2.0;57.1
79187;SHT31;68762;51.980;5.646;2024-01-11T03:55:18;-2.0;57.3
79187;SHT31;68762;51.980;5.646;2024-01-11T03:57:47;-2.0;57.1
79187;SHT31;68762;51.980;5.646;2024-01-11T04:00:16;-2.0;57.3
79187;SHT31;68762;51.980;5.646;2024-01-11T04:02:44;-2.0;56.7
79187;SHT31;68762;51.980;5.646;2024-01-11T04:05:13;-2.0;57.2
79187;SHT31;68762;51.980;5.646;2024-01-11T04:07:41;-2.0;57.1
79187;SHT31;68762;51.980;5.646;2024-01-11T04:10:10;-2.0;56.9
79187;SHT31;68762;51.980;5.646;2024-01-11T04:12:39;-2.0;56.9
79187;SHT31;68762;51.980;5.646;2024-01-11T04:15:08;-2.0;56.9
79187;SHT31;68762;51.980;5.646;2024-01-11T04:17:38;-2.1;57.0
79187;SHT31;68762;51.980;5.646;2024-01-11T04:20:07;-2.1;57.2
79187;SHT31;68762;51.980;5.646;2024-01-11T04:22:38;-2.1;57.1
79187;SHT31;68762;51.980;5.646;2024-01-11T04:25:07;-2.1;57.3
79187;SHT31;68762;51.980;5.646;2024-01-11T04:27:36;-2.1;57.2
79187;SHT31;68762;51.980;5.646;2024-01-11T04:30:05;-2.1;57.2
79187;SHT31;68762;51.980;5.646;2024-01-11T04:32:36;-2.1;57.4
79187;SHT31;68762;51.980;5.646;2024-01-11T04:35:05;-2.1;57.5
79187;SHT31;68762;51.980;5.646;2024-01-11T04:37:33;-2.2;57.6
79187;SHT31;68762;51.980;5.646;2024-01-11T04:40:03;-2.2;57.6
79187;SHT31;68762;51.980;5.646;2024-01-11T04:42:32;-2.2;57.7
79187;SHT31;68762;51.980;5.646;2024-01-11T04:45:00;-2.2;57.8
79187;SHT31;68762;51.980;5.646;2024-01-11T04:47:31;-2.2;58.1
79187;SHT31;68762;51.980;5.646;2024-01-11T04:50:00;-2.3;58.2
79187;SHT31;68762;51.980;5.646;2024-01-11T04:52:28;-2.3;58.5
79187;SHT31;68762;51.980;5.646;2024-01-11T04:54:57;-2.3;58.6
79187;SHT31;68762;51.980;5.646;2024-01-11T04:57:25;-2.4;58.9
79187;SHT31;68762;51.980;5.646;2024-01-11T04:59:54;-2.4;59.1
79187;SHT31;68762;51.980;5.646;2024-01-11T05:02:22;-2.4;59.2
79187;SHT31;68762;51.980;5.646;2024-01-11T05:04:51;-2.4;59.3
79187;SHT31;68762;51.980;5.646;2024-01-11T05:07:20;-2.5;59.5
79187;SHT31;68762;51.980;5.646;2024-01-11T05:09:48;-2.5;59.6
79187;SHT31;68762;51.980;5.646;2024-01-11T05:12:17;-2.5;59.5
79187;SHT31;68762;51.980;5.646;2024-01-11T05:14:45;-2.5;59.6
79187;SHT31;68762;51.980;5.646;2024-01-11T05:17:14;-2.5;59.5
79187;SHT31;68762;51.980;5.646;2024-01-11T05:19:43;-2.5;59.5
79187;SHT31;68762;51.980;5.646;2024-01-11T05:22:11;-2.5;59.6
79187;SHT31;68762;51.980;5.646;2024-01-11T05:24:40;-2.4;59.6
79187;SHT31;68762;51.980;5.646;2024-01-11T05:27:09;-2.4;59.6
79187;SHT31;68762;51.980;5.646;2024-01-11T05:29:38;-2.4;59.4
79187;SHT31;68762;51.980;5.646;2024-01-11T05:32:07;-2.4;59.3
79187;SHT31;68762;51.980;5.646;2024-01-11T05:34:35;-2.4;59.5
79187;SHT31;68762;51.980;5.646;2024-01-11T05:37:04;-2.4;59.4
79187;SHT31;68762;51.980;5.646;2024-01-11T05:39:32;-2.4;59.6
79187;SHT31;68762;51.980;5.646;2024-01-11T05:42:02;-2.4;59.4
79187;SHT31;68762;51.980;5.646;2024-01-11T05:44:30;-2.4;59.5
79187;SHT31;68762;51.980;5.646;2024-01-11T05:46:59;-2.4;59.2
79187;SHT31;68762;51.980;5.646;2024-01-11T05:49:27;-2.5;59.4
79187;SHT31;68762;51.980;5.646;2024-01-11T05:51:56;-2.4;59.5
79187;SHT31;68762;51.980;5.646;2024-01-11T05:54:24;-2.4;59.6
79187;SHT31;68762;51.980;5.646;2024-01-11T05:56:54;-2.4;59.3
79187;SHT31;68762;51.980;5.646;2024-01-11T05:59:27;-2.4;59.6
79187;SHT31;68762;51.980;5.646;2024-01-11T06:01:55;-2.4;59.4
79187;SHT31;68762;51.980;5.646;2024-01-11T06:04:26;-2.4;59.4
79187;SHT31;68762;51.980;5.646;2024-01-11T06:06:56;-2.4;59.4
79187;SHT31;68762;51.980;5.646;2024-01-11T06:09:26;-2.4;59.3
79187;SHT31;68762;51.980;5.646;2024-01-11T06:11:54;-2.4;59.3
79187;SHT31;68762;51.980;5.646;2024-01-11T06:14:23;-2.4;59.6
79187;SHT31;68762;51.980;5.646;2024-01-11T06:16:51;-2.4;59.6
79187;SHT31;68762;51.980;5.646;2024-01-11T06:19:20;-2.4;59.6
79187;SHT31;68762;51.980;5.646;2024-01-11T06:21:51;-2.4;59.6
79187;SHT31;68762;51.980;5.646;2024-01-11T06:24:19;-2.4;59.5
79187;SHT31;68762;51.980;5.646;2024-01-11T06:26:48;-2.4;59.3
79187;SHT31;68762;51.980;5.646;2024-01-11T06:29:16;-2.4;59.9
79187;SHT31;68762;51.980;5.646;2024-01-11T06:31:45;-2.4;59.7
79187;SHT31;68762;51.980;5.646;2024-01-11T06:34:13;-2.5;59.9
79187;SHT31;68762;51.980;5.646;2024-01-11T06:36:42;-2.5;60.0
79187;SHT31;68762;51.980;5.646;2024-01-11T06:39:11;-2.5;60.2
79187;SHT31;68762;51.980;5.646;2024-01-11T06:41:40;-2.6;60.4
79187;SHT31;68762;51.980;5.646;2024-01-11T06:44:09;-2.6;60.4
79187;SHT31;68762;51.980;5.646;2024-01-11T06:46:37;-2.6;60.6
79187;SHT31;68762;51.980;5.646;2024-01-11T06:49:08;-2.6;60.7
79187;SHT31;68762;51.980;5.646;2024-01-11T06:51:36;-2.6;60.7
79187;SHT31;68762;51.980;5.646;2024-01-11T06:54:07;-2.6;60.5
79187;SHT31;68762;51.980;5.646;2024-01-11T06:56:35;-2.6;60.3
79187;SHT31;68762;51.980;5.646;2024-01-11T06:59:04;-2.6;60.3
79187;SHT31;68762;51.980;5.646;2024-01-11T07:01:33;-2.6;60.3
79187;SHT31;68762;51.980;5.646;2024-01-11T07:04:02;-2.6;60.3
79187;SHT31;68762;51.980;5.646;2024-01-11T07:06:31;-2.6;60.4
79187;SHT31;68762;51.980;5.646;2024-01-11T07:08:59;-2.6;60.6
79187;SHT31;68762;51.980;5.646;2024-01-11T07:11:28;-2.6;60.7
79187;SHT31;68762;51.980;5.646;2024-01-11T07:13:57;-2.7;60.7
79187;SHT31;68762;51.980;5.646;2024-01-11T07:16:26;-2.7;60.9
79187;SHT31;68762;51.980;5.646;2024-01-11T07:18:54;-2.7;61.0
79187;SHT31;68762;51.980;5.646;2024-01-11T07:21:24;-2.7;61.0
79187;SHT31;68762;51.980;5.646;2024-01-11T07:23:56;-2.7;61.0
79187;SHT31;68762;51.980;5.646;2024-01-11T07:26:25;-2.7;61.0
79187;SHT31;68762;51.980;5.646;2024-01-11T07:28:54;-2.7;61.0
79187;SHT31;68762;51.980;5.646;2024-01-11T07:31:23;-2.7;60.7
79187;SHT31;68762;51.980;5.646;2024-01-11T07:33:52;-2.7;60.9
79187;SHT31;68762;51.980;5.646;2024-01-11T07:36:20;-2.7;61.0
79187;SHT31;68762;51.980;5.646;2024-01-11T07:38:49;-2.7;60.9
79187;SHT31;68762;51.980;5.646;2024-01-11T07:41:18;-2.7;62.0
79187;SHT31;68762;51.980;5.646;2024-01-11T07:43:46;-2.7;61.5
79187;SHT31;68762;51.980;5.646;2024-01-11T07:46:15;-2.7;61.2
79187;SHT31;68762;51.980;5.646;2024-01-11T07:48:43;-2.7;61.6
79187;SHT31;68762;51.980;5.646;2024-01-11T07:51:12;-2.7;61.3
79187;SHT31;68762;51.980;5.646;2024-01-11T07:53:42;-2.7;61.3
79187;SHT31;68762;51.980;5.646;2024-01-11T07:56:11;-2.7;61.3
79187;SHT31;68762;51.980;5.646;2024-01-11T07:58:40;-2.7;61.2
79187;SHT31;68762;51.980;5.646;2024-01-11T08:01:09;-2.7;61.3
79187;SHT31;68762;51.980;5.646;2024-01-11T08:03:39;-2.7;61.6
79187;SHT31;68762;51.980;5.646;2024-01-11T08:06:08;-2.7;61.4
79187;SHT31;68762;51.980;5.646;2024-01-11T08:08:37;-2.7;61.6
79187;SHT31;68762;51.980;5.646;2024-01-11T08:11:07;-2.7;61.6
79187;SHT31;68762;51.980;5.646;2024-01-11T08:13:36;-2.7;61.7
79187;SHT31;68762;51.980;5.646;2024-01-11T08:16:05;-2.7;61.8
79187;SHT31;68762;51.980;5.646;2024-01-11T08:18:37;-2.7;61.6
79187;SHT31;68762;51.980;5.646;2024-01-11T08:21:06;-2.7;61.8
79187;SHT31;68762;51.980;5.646;2024-01-11T08:23:36;-2.7;62.1
79187;SHT31;68762;51.980;5.646;2024-01-11T08:26:06;-2.7;62.1
79187;SHT31;68762;51.980;5.646;2024-01-11T08:28:35;-2.6;62.0
79187;SHT31;68762;51.980;5.646;2024-01-11T08:31:03;-2.6;62.0
79187;SHT31;68762;51.980;5.646;2024-01-11T08:33:33;-2.6;62.1
79187;SHT31;68762;51.980;5.646;2024-01-11T08:36:03;-2.6;62.2
79187;SHT31;68762;51.980;5.646;2024-01-11T08:38:32;-2.6;62.5
79187;SHT31;68762;51.980;5.646;2024-01-11T08:41:02;-2.6;62.8
79187;SHT31;68762;51.980;5.646;2024-01-11T08:43:31;-2.6;62.9
79187;SHT31;68762;51.980;5.646;2024-01-11T08:45:59;-2.6;62.6
79187;SHT31;68762;51.980;5.646;2024-01-11T08:48:30;-2.6;62.4
79187;SHT31;68762;51.980;5.646;2024-01-11T08:50:59;-2.6;62.5
79187;SHT31;68762;51.980;5.646;2024-01-11T08:53:27;-2.6;62.6
79187;SHT31;68762;51.980;5.646;2024-01-11T08:55:56;-2.5;62.8
79187;SHT31;68762;51.980;5.646;2024-01-11T08:58:25;-2.5;62.6
79187;SHT31;68762;51.980;5.646;2024-01-11T09:00:53;-2.5;62.5
79187;SHT31;68762;51.980;5.646;2024-01-11T09:03:22;-2.5;62.4
79187;SHT31;68762;51.980;5.646;2024-01-11T09:05:50;-2.5;62.4
79187;SHT31;68762;51.980;5.646;2024-01-11T09:08:23;-2.5;62.4
79187;SHT31;68762;51.980;5.646;2024-01-11T09:10:53;-2.4;62.8
79187;SHT31;68762;51.980;5.646;2024-01-11T09:13:24;-2.4;62.8
79187;SHT31;68762;51.980;5.646;2024-01-11T09:15:54;-2.4;62.6
79187;SHT31;68762;51.980;5.646;2024-01-11T09:18:23;-2.3;62.5
79187;SHT31;68762;51.980;5.646;2024-01-11T09:20:51;-2.3;62.1
79187;SHT31;68762;51.980;5.646;2024-01-11T09:23:20;-2.3;62.0
79187;SHT31;68762;51.980;5.646;2024-01-11T09:25:49;-2.2;62.5
79187;SHT31;68762;51.980;5.646;2024-01-11T09:28:17;-2.2;62.1
79187;SHT31;68762;51.980;5.646;2024-01-11T09:30:46;-2.1;62.0
79187;SHT31;68762;51.980;5.646;2024-01-11T09:33:14;-2.1;62.3
79187;SHT31;68762;51.980;5.646;2024-01-11T09:35:43;-2.0;62.1
79187;SHT31;68762;51.980;5.646;2024-01-11T09:38:13;-2.0;61.9
79187;SHT31;68762;51.980;5.646;2024-01-11T09:40:42;-2.0;62.2
79187;SHT31;68762;51.980;5.646;2024-01-11T09:43:11;-1.9;62.0
79187;SHT31;68762;51.980;5.646;2024-01-11T09:45:40;-1.9;62.0
79187;SHT31;68762;51.980;5.646;2024-01-11T09:48:10;-1.8;62.2
79187;SHT31;68762;51.980;5.646;2024-01-11T09:50:40;-1.8;62.5
79187;SHT31;68762;51.980;5.646;2024-01-11T09:53:09;-1.7;62.2
79187;SHT31;68762;51.980;5.646;2024-01-11T09:55:38;-1.7;62.4
79187;SHT31;68762;51.980;5.646;2024-01-11T09:58:08;-1.6;62.6
79187;SHT31;68762;51.980;5.646;2024-01-11T10:00:40;-1.6;62.9
79187;SHT31;68762;51.980;5.646;2024-01-11T10:03:10;-1.5;62.8
79187;SHT31;68762;51.980;5.646;2024-01-11T10:05:39;-1.5;62.9
79187;SHT31;68762;51.980;5.646;2024-01-11T10:08:09;-1.4;62.8
79187;SHT31;68762;51.980;5.646;2024-01-11T10:10:38;-1.3;62.8
79187;SHT31;68762;51.980;5.646;2024-01-11T10:13:07;-1.3;62.8
79187;SHT31;68762;51.980;5.646;2024-01-11T10:15:37;-1.2;62.7
79187;SHT31;68762;51.980;5.646;2024-01-11T10:20:39;-1.1;63.3
79187;SHT31;68762;51.980;5.646;2024-01-11T10:23:08;-1.0;63.8
79187;SHT31;68762;51.980;5.646;2024-01-11T10:25:39;-1.0;64.1
79187;SHT31;68762;51.980;5.646;2024-01-11T10:28:09;-0.9;63.6
79187;SHT31;68762;51.980;5.646;2024-01-11T10:30:45;-0.9;63.9
79187;SHT31;68762;51.980;5.646;2024-01-11T10:33:15;-0.8;63.9
79187;SHT31;68762;51.980;5.646;2024-01-11T10:35:43;-0.7;64.2
79187;SHT31;68762;51.980;5.646;2024-01-11T10:38:13;-0.7;64.6
79187;SHT31;68762;51.980;5.646;2024-01-11T10:40:43;-0.6;64.6
79187;SHT31;68762;51.980;5.646;2024-01-11T10:43:15;-0.6;65.2
79187;SHT31;68762;51.980;5.646;2024-01-11T10:45:48;-0.5;66.2
79187;SHT31;68762;51.980;5.646;2024-01-11T10:48:21;-0.5;66.6
79187;SHT31;68762;51.980;5.646;2024-01-11T10:50:54;-0.4;66.9
79187;SHT31;68762;51.980;5.646;2024-01-11T10:53:35;-0.4;67.4
79187;SHT31;68762;51.980;5.646;2024-01-11T10:56:06;-0.3;68.5
79187;SHT31;68762;51.980;5.646;2024-01-11T10:58:35;-0.2;69.2
79187;SHT31;68762;51.980;5.646;2024-01-11T11:01:05;-0.2;69.4
79187;SHT31;68762;51.980;5.646;2024-01-11T11:03:35;-0.1;69.9
79187;SHT31;68762;51.980;5.646;2024-01-11T11:06:06;0.0;70.2
79187;SHT31;68762;51.980;5.646;2024-01-11T11:08:36;0.1;70.7
79187;SHT31;68762;51.980;5.646;2024-01-11T11:11:05;0.2;71.0
79187;SHT31;68762;51.980;5.646;2024-01-11T11:13:35;0.3;71.0
79187;SHT31;68762;51.980;5.646;2024-01-11T11:16:05;0.4;71.5
79187;SHT31;68762;51.980;5.646;2024-01-11T11:18:34;0.5;71.7
79187;SHT31;68762;51.980;5.646;2024-01-11T11:21:08;0.6;71.6
79187;SHT31;68762;51.980;5.646;2024-01-11T11:23:38;0.6;71.8
79187;SHT31;68762;51.980;5.646;2024-01-11T11:26:16;0.7;71.3
79187;SHT31;68762;51.980;5.646;2024-01-11T11:28:47;0.8;71.7
79187;SHT31;68762;51.980;5.646;2024-01-11T11:31:37;0.9;71.5
79187;SHT31;68762;51.980;5.646;2024-01-11T11:34:07;0.9;71.6
79187;SHT31;68762;51.980;5.646;2024-01-11T11:36:44;1.0;71.6
79187;SHT31;68762;51.980;5.646;2024-01-11T11:39:16;1.1;71.4
79187;SHT31;68762;51.980;5.646;2024-01-11T11:41:47;1.2;71.7
79187;SHT31;68762;51.980;5.646;2024-01-11T11:44:16;1.2;71.8
79187;SHT31;68762;51.980;5.646;2024-01-11T11:46:47;1.3;71.6
79187;SHT31;68762;51.980;5.646;2024-01-11T11:49:17;1.4;71.0
79187;SHT31;68762;51.980;5.646;2024-01-11T11:51:46;1.4;71.2
79187;SHT31;68762;51.980;5.646;2024-01-11T11:54:16;1.5;71.3
79187;SHT31;68762;51.980;5.646;2024-01-11T11:56:45;1.6;71.1
79187;SHT31;68762;51.980;5.646;2024-01-11T11:59:14;1.6;70.6
79187;SHT31;68762;51.980;5.646;2024-01-11T12:01:45;1.7;70.4
79187;SHT31;68762;51.980;5.646;2024-01-11T12:04:17;1.8;70.5
79187;SHT31;68762;51.980;5.646;2024-01-11T12:06:46;1.8;70.4
79187;SHT31;68762;51.980;5.646;2024-01-11T12:09:18;1.9;70.1
79187;SHT31;68762;51.980;5.646;2024-01-11T12:11:48;1.9;70.1
79187;SHT31;68762;51.980;5.646;2024-01-11T12:14:17;2.0;70.3
79187;SHT31;68762;51.980;5.646;2024-01-11T12:16:57;2.0;70.3
79187;SHT31;68762;51.980;5.646;2024-01-11T12:19:25;2.1;70.2
79187;SHT31;68762;51.980;5.646;2024-01-11T12:21:56;2.2;69.9
79187;SHT31;68762;51.980;5.646;2024-01-11T12:24:25;2.2;69.7
79187;SHT31;68762;51.980;5.646;2024-01-11T12:26:54;2.3;69.7
79187;SHT31;68762;51.980;5.646;2024-01-11T12:29:23;2.4;69.6
79187;SHT31;68762;51.980;5.646;2024-01-11T12:31:52;2.4;69.3
79187;SHT31;68762;51.980;5.646;2024-01-11T12:34:21;2.5;69.2
79187;SHT31;68762;51.980;5.646;2024-01-11T12:36:50;2.5;69.1
79187;SHT31;68762;51.980;5.646;2024-01-11T12:39:20;2.6;69.0
79187;SHT31;68762;51.980;5.646;2024-01-11T12:41:48;2.7;68.7
79187;SHT31;68762;51.980;5.646;2024-01-11T12:44:20;2.7;68.4
79187;SHT31;68762;51.980;5.646;2024-01-11T12:46:49;2.8;68.3
79187;SHT31;68762;51.980;5.646;2024-01-11T12:49:19;2.8;68.1
79187;SHT31;68762;51.980;5.646;2024-01-11T12:51:49;2.9;68.0
79187;SHT31;68762;51.980;5.646;2024-01-11T12:54:18;2.9;67.8
79187;SHT31;68762;51.980;5.646;2024-01-11T12:56:46;3.0;67.6
79187;SHT31;68762;51.980;5.646;2024-01-11T12:59:16;3.0;67.6
79187;SHT31;68762;51.980;5.646;2024-01-11T13:01:45;3.0;67.4
79187;SHT31;68762;51.980;5.646;2024-01-11T13:04:15;3.1;67.3
79187;SHT31;68762;51.980;5.646;2024-01-11T13:06:45;3.1;67.2
79187;SHT31;68762;51.980;5.646;2024-01-11T13:09:14;3.2;67.2
79187;SHT31;68762;51.980;5.646;2024-01-11T13:11:42;3.2;67.2
79187;SHT31;68762;51.980;5.646;2024-01-11T13:14:11;3.3;66.9
79187;SHT31;68762;51.980;5.646;2024-01-11T13:16:45;3.3;66.5
79187;SHT31;68762;51.980;5.646;2024-01-11T13:19:15;3.3;66.6
79187;SHT31;68762;51.980;5.646;2024-01-11T13:21:43;3.3;66.6
79187;SHT31;68762;51.980;5.646;2024-01-11T13:24:12;3.4;66.4
79187;SHT31;68762;51.980;5.646;2024-01-11T13:26:43;3.4;66.5
79187;SHT31;68762;51.980;5.646;2024-01-11T13:29:11;3.4;66.5
79187;SHT31;68762;51.980;5.646;2024-01-11T13:31:40;3.4;66.3
79187;SHT31;68762;51.980;5.646;2024-01-11T13:34:08;3.4;66.2
79187;SHT31;68762;51.980;5.646;2024-01-11T13:36:37;3.4;66.4
79187;SHT31;68762;51.980;5.646;2024-01-11T13:39:06;3.4;66.5
79187;SHT31;68762;51.980;5.646;2024-01-11T13:41:36;3.5;66.6
79187;SHT31;68762;51.980;5.646;2024-01-11T13:44:07;3.5;66.5
79187;SHT31;68762;51.980;5.646;2024-01-11T13:46:36;3.5;66.6
79187;SHT31;68762;51.980;5.646;2024-01-11T13:49:04;3.5;66.6
79187;SHT31;68762;51.980;5.646;2024-01-11T13:51:33;3.5;66.7
79187;SHT31;68762;51.980;5.646;2024-01-11T13:54:03;3.5;66.6
79187;SHT31;68762;51.980;5.646;2024-01-11T13:56:32;3.5;66.5
79187;SHT31;68762;51.980;5.646;2024-01-11T13:59:00;3.5;66.4
79187;SHT31;68762;51.980;5.646;2024-01-11T14:01:29;3.5;66.6
79187;SHT31;68762;51.980;5.646;2024-01-11T14:03:57;3.5;66.6
79187;SHT31;68762;51.980;5.646;2024-01-11T14:06:26;3.6;66.6
79187;SHT31;68762;51.980;5.646;2024-01-11T14:08:55;3.6;66.6
79187;SHT31;68762;51.980;5.646;2024-01-11T14:11:23;3.6;66.6
79187;SHT31;68762;51.980;5.646;2024-01-11T14:13:52;3.5;66.7
79187;SHT31;68762;51.980;5.646;2024-01-11T14:16:20;3.6;66.9
79187;SHT31;68762;51.980;5.646;2024-01-11T14:18:50;3.6;66.9
79187;SHT31;68762;51.980;5.646;2024-01-11T14:21:18;3.6;66.8
79187;SHT31;68762;51.980;5.646;2024-01-11T14:23:46;3.6;67.0
79187;SHT31;68762;51.980;5.646;2024-01-11T14:26:15;3.6;67.2
79187;SHT31;68762;51.980;5.646;2024-01-11T14:28:43;3.6;67.2
79187;SHT31;68762;51.980;5.646;2024-01-11T14:31:12;3.6;67.2
79187;SHT31;68762;51.980;5.646;2024-01-11T14:33:40;3.6;67.3
79187;SHT31;68762;51.980;5.646;2024-01-11T14:36:09;3.7;67.3
79187;SHT31;68762;51.980;5.646;2024-01-11T14:38:38;3.7;67.2
79187;SHT31;68762;51.980;5.646;2024-01-11T14:41:06;3.7;67.1
79187;SHT31;68762;51.980;5.646;2024-01-11T14:43:36;3.7;67.1
79187;SHT31;68762;51.980;5.646;2024-01-11T14:46:04;3.7;67.2
79187;SHT31;68762;51.980;5.646;2024-01-11T14:48:36;3.7;67.1
79187;SHT31;68762;51.980;5.646;2024-01-11T14:51:05;3.7;67.0
79187;SHT31;68762;51.980;5.646;2024-01-11T14:53:34;3.7;67.2
79187;SHT31;68762;51.980;5.646;2024-01-11T14:56:02;3.7;67.1
79187;SHT31;68762;51.980;5.646;2024-01-11T14:58:31;3.7;67.0
79187;SHT31;68762;51.980;5.646;2024-01-11T15:01:00;3.7;67.1
79187;SHT31;68762;51.980;5.646;2024-01-11T15:03:30;3.7;67.1
79187;SHT31;68762;51.980;5.646;2024-01-11T15:05:59;3.7;67.3
79187;SHT31;68762;51.980;5.646;2024-01-11T15:08:27;3.7;67.3
79187;SHT31;68762;51.980;5.646;2024-01-11T15:10:56;3.7;67.3
79187;SHT31;68762;51.980;5.646;2024-01-11T15:13:24;3.7;67.4
79187;SHT31;68762;51.980;5.646;2024-01-11T15:15:55;3.7;67.5
79187;SHT31;68762;51.980;5.646;2024-01-11T15:18:23;3.8;67.5
79187;SHT31;68762;51.980;5.646;2024-01-11T15:20:52;3.8;67.6
79187;SHT31;68762;51.980;5.646;2024-01-11T15:23:20;3.8;67.7
79187;SHT31;68762;51.980;5.646;2024-01-11T15:25:49;3.8;67.7
79187;SHT31;68762;51.980;5.646;2024-01-11T15:28:18;3.8;67.7
79187;SHT31;68762;51.980;5.646;2024-01-11T15:30:47;3.8;67.8
79187;SHT31;68762;51.980;5.646;2024-01-11T15:33:15;3.9;67.7
79187;SHT31;68762;51.980;5.646;2024-01-11T15:35:44;3.9;67.6
79187;SHT31;68762;51.980;5.646;2024-01-11T15:38:14;3.9;67.7
79187;SHT31;68762;51.980;5.646;2024-01-11T15:40:44;3.9;67.7
79187;SHT31;68762;51.980;5.646;2024-01-11T15:43:13;3.9;67.9
79187;SHT31;68762;51.980;5.646;2024-01-11T15:45:41;3.9;68.0
79187;SHT31;68762;51.980;5.646;2024-01-11T15:48:13;3.9;67.9
79187;SHT31;68762;51.980;5.646;2024-01-11T15:50:41;3.9;68.0
79187;SHT31;68762;51.980;5.646;2024-01-11T15:53:10;3.9;68.2
79187;SHT31;68762;51.980;5.646;2024-01-11T15:55:39;3.9;68.3
79187;SHT31;68762;51.980;5.646;2024-01-11T15:58:07;3.9;68.4
79187;SHT31;68762;51.980;5.646;2024-01-11T16:00:36;3.9;68.5
79187;SHT31;68762;51.980;5.646;2024-01-11T16:03:05;3.9;68.6
79187;SHT31;68762;51.980;5.646;2024-01-11T16:05:33;3.9;68.7
79187;SHT31;68762;51.980;5.646;2024-01-11T16:08:02;3.9;68.8
79187;SHT31;68762;51.980;5.646;2024-01-11T16:10:30;3.9;68.9
79187;SHT31;68762;51.980;5.646;2024-01-11T16:12:59;3.9;68.8
79187;SHT31;68762;51.980;5.646;2024-01-11T16:15:28;3.9;68.9
79187;SHT31;68762;51.980;5.646;2024-01-11T16:17:57;3.9;69.1
79187;SHT31;68762;51.980;5.646;2024-01-11T16:20:25;3.9;69.2
79187;SHT31;68762;51.980;5.646;2024-01-11T16:22:54;3.9;69.3